Time;durP1;ratioP1;P1;durP2;ratioP2;P2;SDS_P1;SDS_P2;PMS_P1;PMS_P2;Temp;Humidity;BMP_temperature;BMP_pressure;BME280_temperature;BME280_humidity;BME280_pressure;Samples;Min_cycle;Max_cycle;Signal;HPM_P1;HPM_P2
2022/05/05 00:01:23;;;;;;;3.70;1.52;;;20.00;40.90;19.00;101564.00;;;;5039225;28;20178;-73
2022/05/05 00:04:09;;;;;;;3.90;1.45;;;19.90;40.90;19.00;101559.00;;;;5033640;28;20037;-72
2022/05/05 00:06:55;;;;;;;2.78;1.50;;;19.90;40.90;19.00;101565.00;;;;5035223;28;20073;-72
2022/05/05 00:09:42;;;;;;;5.45;1.85;;;19.90;40.90;19.00;101559.00;;;;5024420;28;20521;-72
2022/05/05 00:15:33;;;;;;;4.03;1.48;;;19.90;41.00;19.00;101568.00;;;;5030821;28;20530;-73
2022/05/05 00:18:19;;;;;;;4.30;1.55;;;19.90;41.00;19.00;101558.00;;;;5036039;28;20041;-72
2022/05/05 00:21:05;;;;;;;2.97;1.33;;;19.90;41.00;19.00;101557.00;;;;5036462;28;20499;-72
2022/05/05 00:23:51;;;;;;;3.22;1.13;;;20.00;41.10;19.00;101561.00;;;;5032727;28;20049;-72
2022/05/05 00:26:37;;;;;;;1.85;1.33;;;19.90;41.10;19.00;101560.00;;;;5039577;28;20048;-72
2022/05/05 00:29:23;;;;;;;2.92;1.73;;;19.90;41.10;19.00;101563.00;;;;5032994;28;20510;-72
2022/05/05 00:32:11;;;;;;;2.67;1.30;;;19.90;41.10;19.00;101563.00;;;;5032422;28;20041;-72
2022/05/05 00:34:57;;;;;;;3.00;1.33;;;19.90;41.20;19.00;101559.00;;;;5033729;28;20362;-72
2022/05/05 00:37:43;;;;;;;5.45;1.25;;;19.90;41.20;19.00;101568.00;;;;5033249;28;20037;-72
2022/05/05 00:40:30;;;;;;;2.97;1.55;;;19.90;41.20;19.00;101556.00;;;;5030959;28;20099;-72
2022/05/05 00:43:16;;;;;;;2.50;1.42;;;19.90;41.20;19.00;101566.00;;;;5020639;28;20040;-72
2022/05/05 00:46:03;;;;;;;2.80;1.35;;;19.90;41.20;19.00;101563.00;;;;5032017;28;20079;-72
2022/05/05 00:48:50;;;;;;;4.65;1.80;;;19.90;41.20;19.00;101562.00;;;;5039006;28;20112;-72
2022/05/05 00:51:36;;;;;;;2.97;1.38;;;19.90;41.30;19.00;101569.00;;;;5021642;28;20474;-73
2022/05/05 00:54:22;;;;;;;4.97;1.65;;;19.90;41.30;19.00;101578.00;;;;5020211;28;20166;-72
2022/05/05 00:57:08;;;;;;;3.22;1.52;;;19.90;41.30;19.00;101576.00;;;;5032794;28;20498;-72
2022/05/05 00:59:55;;;;;;;2.05;1.35;;;19.90;41.30;19.00;101566.00;;;;5020793;28;20037;-72
2022/05/05 01:02:41;;;;;;;3.13;1.70;;;19.90;41.40;19.00;101572.00;;;;5031352;28;20030;-72
2022/05/05 01:05:27;;;;;;;2.63;1.25;;;19.80;42.00;19.00;101569.00;;;;5032639;28;20450;-72
2022/05/05 01:08:13;;;;;;;3.47;1.50;;;19.90;41.30;19.00;101564.00;;;;5020463;28;20052;-72
2022/05/05 01:10:59;;;;;;;2.75;1.73;;;19.90;41.30;19.00;101574.00;;;;5033847;28;20049;-72
2022/05/05 01:13:45;;;;;;;2.03;1.40;;;19.90;41.40;19.00;101581.00;;;;5039210;28;20088;-72
2022/05/05 01:16:34;;;;;;;3.13;1.38;;;19.80;41.40;19.00;101573.00;;;;5022823;28;20037;-72
2022/05/05 01:19:20;;;;;;;3.85;1.40;;;19.90;41.50;19.00;101578.00;;;;5025284;28;20045;-73
2022/05/05 01:22:06;;;;;;;2.28;1.40;;;19.90;41.50;19.00;101579.00;;;;5041221;28;20045;-72
2022/05/05 01:28:12;;;;;;;2.40;1.60;;;19.80;41.50;19.00;101576.00;;;;5045882;28;20048;-72
2022/05/05 01:30:58;;;;;;;4.18;1.55;;;19.80;41.50;18.90;101577.00;;;;5027088;28;20045;-73
2022/05/05 01:33:44;;;;;;;4.28;1.60;;;19.80;41.60;19.00;101580.00;;;;5023094;28;20045;-72
2022/05/05 01:36:30;;;;;;;2.80;1.30;;;19.80;41.60;18.90;101570.00;;;;5033948;28;20051;-72
2022/05/05 01:39:17;;;;;;;4.57;1.60;;;19.80;41.60;18.90;101572.00;;;;5024169;28;20129;-72
2022/05/05 01:42:04;;;;;;;3.58;1.52;;;19.80;41.70;18.90;101572.00;;;;5017276;28;20068;-73
2022/05/05 01:44:50;;;;;;;2.67;1.40;;;19.80;41.80;18.90;101580.00;;;;5032487;28;20402;-72
2022/05/05 01:47:37;;;;;;;2.70;1.50;;;19.80;41.80;18.90;101585.00;;;;5037114;28;20108;-72
2022/05/05 01:50:23;;;;;;;2.92;1.20;;;19.80;41.80;18.90;101577.00;;;;5033500;28;20136;-72
2022/05/05 01:53:09;;;;;;;3.72;1.70;;;19.80;42.60;18.90;101581.00;;;;5033980;28;20526;-72
2022/05/05 01:55:55;;;;;;;3.05;1.48;;;19.80;41.90;18.90;101578.00;;;;5034762;28;20103;-72
2022/05/05 01:58:44;;;;;;;5.18;1.77;;;19.80;41.90;18.90;101576.00;;;;5042648;28;20171;-72
2022/05/05 02:01:30;;;;;;;3.03;1.77;;;19.70;41.90;18.90;101580.00;;;;5033071;28;20369;-72
2022/05/05 02:04:16;;;;;;;4.35;1.45;;;19.80;41.90;18.90;101581.00;;;;5037941;28;20033;-72
2022/05/05 02:07:03;;;;;;;1.80;1.27;;;19.80;41.90;18.90;101574.00;;;;5034437;28;20414;-72
2022/05/05 02:09:49;;;;;;;2.90;1.50;;;19.80;42.00;18.90;101579.00;;;;5033487;28;20313;-72
2022/05/05 02:12:36;;;;;;;2.72;1.42;;;19.80;42.00;18.90;101581.00;;;;5017730;28;20044;-72
2022/05/05 02:15:22;;;;;;;3.38;1.58;;;19.70;41.90;18.90;101582.00;;;;5039405;28;20032;-72
2022/05/05 02:18:12;;;;;;;3.00;1.52;;;19.70;42.00;18.90;101582.00;;;;5038696;28;20044;-72
2022/05/05 02:20:58;;;;;;;2.80;1.33;;;19.80;42.10;18.80;101582.00;;;;5017803;28;20055;-72
2022/05/05 02:23:44;;;;;;;4.30;1.63;;;19.70;42.00;18.90;101587.00;;;;5039480;28;20036;-72
2022/05/05 02:26:30;;;;;;;3.70;1.50;;;19.70;42.10;18.90;101592.00;;;;5038202;28;20037;-72
2022/05/05 02:29:16;;;;;;;2.03;1.48;;;19.70;42.00;18.90;101597.00;;;;5039594;28;20050;-72
2022/05/05 02:32:03;;;;;;;4.38;1.65;;;19.70;42.10;18.90;101597.00;;;;5036974;28;20048;-73
2022/05/05 02:34:49;;;;;;;4.85;1.90;;;19.70;42.10;18.90;101599.00;;;;5037088;28;20037;-72
2022/05/05 02:40:39;;;;;;;3.92;1.70;;;19.70;42.10;18.80;101595.00;;;;5038022;28;20055;-72
2022/05/05 02:43:25;;;;;;;3.75;1.42;;;19.70;42.10;18.80;101592.00;;;;5036490;28;20036;-72
2022/05/05 02:46:11;;;;;;;2.92;1.63;;;19.70;42.20;18.80;101590.00;;;;5041221;28;20045;-72
2022/05/05 02:48:57;;;;;;;2.30;1.50;;;19.70;42.20;18.80;101588.00;;;;5033648;28;20502;-72
2022/05/05 02:51:45;;;;;;;2.83;1.70;;;19.80;42.20;18.80;101588.00;;;;5038860;28;20045;-72
2022/05/05 02:57:36;;;;;;;3.55;1.83;;;19.70;42.20;18.80;101593.00;;;;5039650;28;20099;-72
2022/05/05 03:00:22;;;;;;;5.50;1.50;;;19.70;42.20;18.80;101587.00;;;;5011319;28;20124;-72
2022/05/05 03:03:08;;;;;;;2.22;1.52;;;19.70;42.20;18.80;101589.00;;;;5023809;28;20049;-73
2022/05/05 03:05:54;;;;;;;3.00;1.90;;;19.60;42.20;18.80;101590.00;;;;5039364;28;20044;-72
2022/05/05 03:08:40;;;;;;;3.85;1.67;;;19.70;42.20;18.80;101594.00;;;;5035914;28;20095;-72
2022/05/05 03:11:26;;;;;;;2.38;1.42;;;19.70;42.30;18.80;101590.00;;;;5033799;28;20506;-72
2022/05/05 03:14:12;;;;;;;3.50;1.35;;;19.60;42.20;18.80;101596.00;;;;5039438;28;20087;-72
2022/05/05 03:16:58;;;;;;;4.38;1.90;;;19.70;42.30;18.80;101590.00;;;;5027767;28;20045;-72
2022/05/05 03:19:44;;;;;;;2.40;1.50;;;19.60;42.30;18.80;101593.00;;;;5039182;28;20037;-72
2022/05/05 03:22:31;;;;;;;2.42;1.35;;;19.60;42.30;18.80;101590.00;;;;5033740;28;20433;-72
2022/05/05 03:25:17;;;;;;;2.25;1.50;;;19.60;42.30;18.80;101598.00;;;;5034875;28;20456;-72
2022/05/05 03:28:03;;;;;;;5.78;1.70;;;19.60;42.30;18.80;101591.00;;;;5036454;28;20041;-72
2022/05/05 03:30:49;;;;;;;3.17;1.80;;;19.60;42.40;18.80;101602.00;;;;5038139;28;20047;-72
2022/05/05 03:33:36;;;;;;;2.63;1.73;;;19.60;42.30;18.80;101605.00;;;;5041086;28;20044;-72
2022/05/05 03:36:23;;;;;;;2.83;1.60;;;19.60;42.40;18.70;101603.00;;;;5035515;28;20132;-73
2022/05/05 03:39:09;;;;;;;3.30;1.65;;;19.60;42.40;18.70;101603.00;;;;5039589;28;20049;-72
2022/05/05 03:41:55;;;;;;;4.70;1.77;;;19.60;42.40;18.70;101604.00;;;;5040691;28;20061;-72
2022/05/05 03:44:41;;;;;;;4.57;1.95;;;19.60;42.40;18.70;101608.00;;;;5033889;28;20417;-73
2022/05/05 03:47:27;;;;;;;3.67;1.55;;;19.60;42.40;18.70;101612.00;;;;5041723;28;20052;-72
2022/05/05 03:50:13;;;;;;;3.58;1.52;;;19.60;42.50;18.70;101613.00;;;;5036270;28;20041;-72
2022/05/05 03:52:59;;;;;;;3.80;1.63;;;19.60;42.50;18.70;101618.00;;;;5041950;28;20041;-72
2022/05/05 03:55:45;;;;;;;4.57;1.98;;;19.60;42.50;18.70;101620.00;;;;5035579;28;20099;-72
2022/05/05 03:58:32;;;;;;;4.32;1.90;;;19.60;42.50;18.70;101625.00;;;;5038513;28;20520;-72
2022/05/05 04:01:18;;;;;;;4.43;1.95;;;19.60;42.60;18.70;101626.00;;;;5026856;28;20048;-72
2022/05/05 04:04:04;;;;;;;4.65;2.00;;;19.60;42.60;18.70;101624.00;;;;5044761;28;20418;-72
2022/05/05 04:06:50;;;;;;;2.58;1.80;;;19.50;42.50;18.70;101635.00;;;;5036173;28;20482;-72
2022/05/05 04:09:36;;;;;;;3.85;1.85;;;19.60;42.60;18.70;101640.00;;;;5034155;28;20050;-72
2022/05/05 04:12:22;;;;;;;2.78;1.60;;;19.60;42.60;18.70;101648.00;;;;5038501;28;20037;-72
2022/05/05 04:15:09;;;;;;;4.47;1.88;;;19.50;42.60;18.70;101631.00;;;;5006816;28;20052;-72
2022/05/05 04:17:56;;;;;;;;;;;19.50;42.70;18.70;101637.00;;;;5026579;28;20056;-72
2022/05/05 04:20:42;;;;;;;3.65;1.80;;;19.50;42.50;18.70;101637.00;;;;5033994;28;19917;-73
2022/05/05 04:23:28;;;;;;;1.75;1.52;;;19.60;42.60;18.70;101632.00;;;;5040609;28;20041;-73
2022/05/05 04:26:14;;;;;;;6.43;2.08;;;19.60;42.60;18.70;101639.00;;;;5008016;28;20060;-72
2022/05/05 04:29:00;;;;;;;4.78;1.88;;;19.50;42.60;18.70;101643.00;;;;5024791;28;20460;-72
2022/05/05 04:31:46;;;;;;;6.05;2.03;;;19.50;42.60;18.70;101633.00;;;;5021273;28;20037;-72
2022/05/05 04:34:32;;;;;;;3.45;1.73;;;19.50;42.70;18.70;101647.00;;;;5031002;28;20052;-72
2022/05/05 04:37:18;;;;;;;3.30;1.77;;;19.50;42.70;18.70;101648.00;;;;5020126;28;20037;-72
2022/05/05 04:40:05;;;;;;;3.92;2.15;;;19.40;42.60;18.70;101658.00;;;;5009289;28;20048;-72
2022/05/05 04:42:51;;;;;;;6.75;2.40;;;19.50;42.80;18.60;101660.00;;;;5049861;28;20064;-72
2022/05/05 04:45:38;;;;;;;4.25;1.70;;;19.50;42.70;18.70;101660.00;;;;5036274;28;20098;-72
2022/05/05 04:48:24;;;;;;;4.00;2.08;;;19.50;42.80;18.70;101659.00;;;;5019924;28;20084;-72
2022/05/05 04:51:10;;;;;;;4.20;2.15;;;19.50;42.80;18.70;101661.00;;;;5031728;28;20478;-72
2022/05/05 04:53:56;;;;;;;2.28;1.55;;;19.50;42.80;18.60;101657.00;;;;5017870;28;20076;-73
2022/05/05 04:56:42;;;;;;;3.85;1.80;;;19.50;42.80;18.60;101659.00;;;;5032542;28;20398;-74
2022/05/05 04:59:29;;;;;;;3.40;1.77;;;19.60;42.80;18.70;101659.00;;;;5033928;28;20052;-74
2022/05/05 05:02:15;;;;;;;4.05;2.00;;;19.50;42.80;18.60;101659.00;;;;5033184;28;20045;-74
2022/05/05 05:05:01;;;;;;;4.22;1.70;;;19.50;42.90;18.60;101669.00;;;;5038718;28;20041;-74
2022/05/05 05:07:47;;;;;;;2.75;2.00;;;19.50;42.80;18.60;101672.00;;;;5035442;28;20041;-73
2022/05/05 05:10:33;;;;;;;3.33;1.70;;;19.50;42.90;18.60;101668.00;;;;5033173;28;20041;-74
2022/05/05 05:13:19;;;;;;;3.88;2.05;;;19.50;42.90;18.60;101680.00;;;;5033551;28;20107;-74
2022/05/05 05:16:06;;;;;;;3.95;2.08;;;19.50;42.90;18.60;101685.00;;;;5033244;28;20060;-73
2022/05/05 05:18:53;;;;;;;4.10;2.15;;;19.50;42.90;18.60;101684.00;;;;5031485;28;20091;-74
2022/05/05 05:21:39;;;;;;;;;;;19.40;42.80;18.60;101686.00;;;;5033933;28;20381;-74
2022/05/05 05:24:25;;;;;;;2.55;1.73;;;19.50;42.80;18.60;101684.00;;;;5029951;28;19921;-74
2022/05/05 05:27:11;;;;;;;3.65;1.90;;;19.50;42.80;18.60;101679.00;;;;5035715;28;20437;-74
2022/05/05 05:29:58;;;;;;;5.30;1.77;;;19.50;42.90;18.60;101686.00;;;;5023024;28;20053;-74
2022/05/05 05:32:44;;;;;;;5.15;1.90;;;19.50;42.80;18.60;101687.00;;;;5036583;28;20045;-75
2022/05/05 05:35:30;;;;;;;5.45;2.80;;;19.40;42.90;18.60;101684.00;;;;5039877;28;20534;-74
2022/05/05 05:38:19;;;;;;;3.90;2.20;;;19.40;42.90;18.60;101686.00;;;;5034695;28;20045;-74
2022/05/05 05:41:05;;;;;;;4.28;2.10;;;19.40;42.90;18.60;101693.00;;;;5034026;28;20461;-74
2022/05/05 05:43:51;;;;;;;5.22;2.30;;;19.50;42.90;18.60;101682.00;;;;5037977;28;20033;-74
2022/05/05 05:46:38;;;;;;;6.38;2.42;;;19.40;42.90;18.60;101693.00;;;;5033054;28;20062;-72
2022/05/05 05:49:24;;;;;;;5.05;2.30;;;19.40;42.90;18.60;101695.00;;;;5035007;28;20244;-73
2022/05/05 05:52:10;;;;;;;3.50;2.35;;;19.40;42.90;18.60;101706.00;;;;5036833;28;20049;-73
2022/05/05 05:54:56;;;;;;;5.03;2.60;;;19.40;42.90;18.60;101702.00;;;;5034705;28;20102;-72
2022/05/05 05:57:42;;;;;;;3.65;2.17;;;19.40;42.90;18.60;101698.00;;;;5042906;28;20045;-73
2022/05/05 06:00:30;;;;;;;5.43;2.67;;;19.50;43.00;18.60;101705.00;;;;5035622;28;20060;-72
2022/05/05 06:06:24;;;;;;;3.15;2.50;;;19.50;43.00;18.60;101705.00;;;;5041412;28;20048;-73
2022/05/05 06:09:10;;;;;;;6.82;2.80;;;19.40;42.90;18.60;101707.00;;;;5017078;28;20107;-73
2022/05/05 06:11:56;;;;;;;5.35;2.47;;;19.60;43.10;18.60;101710.00;;;;5038584;28;20057;-73
2022/05/05 06:14:42;;;;;;;4.43;2.72;;;19.50;43.00;18.60;101714.00;;;;5037575;28;20048;-73
2022/05/05 06:17:28;;;;;;;5.47;2.78;;;19.50;43.10;18.60;101717.00;;;;5039594;28;20049;-73
2022/05/05 06:20:14;;;;;;;2.80;2.00;;;19.50;43.00;18.60;101718.00;;;;5026865;28;20041;-73
2022/05/05 06:23:00;;;;;;;4.38;2.15;;;19.50;43.10;18.60;101719.00;;;;5035536;28;20114;-73
2022/05/05 06:25:46;;;;;;;2.95;2.00;;;19.50;43.00;18.70;101724.00;;;;5033140;28;20029;-73
2022/05/05 06:28:34;;;;;;;4.10;2.40;;;19.50;43.10;18.70;101725.00;;;;5038299;28;20063;-73
2022/05/05 06:31:20;;;;;;;3.67;2.10;;;19.50;43.00;18.70;101722.00;;;;5035028;28;20051;-74
2022/05/05 06:34:06;;;;;;;2.67;2.10;;;19.60;43.10;18.70;101730.00;;;;5036968;28;20064;-74
2022/05/05 06:36:52;;;;;;;5.18;2.58;;;19.50;43.10;18.70;101724.00;;;;5037423;28;20395;-74
2022/05/05 06:39:38;;;;;;;6.30;2.47;;;19.60;43.10;18.70;101729.00;;;;5042014;28;20048;-78
2022/05/05 06:42:24;;;;;;;2.70;1.75;;;19.60;43.10;18.70;101732.00;;;;5037392;28;20407;-78
2022/05/05 06:45:10;;;;;;;3.47;2.08;;;19.60;43.00;18.70;101729.00;;;;5035843;28;20033;-78
2022/05/05 06:47:58;;;;;;;2.53;2.17;;;19.60;43.00;18.70;101721.00;;;;5039606;28;20111;-78
2022/05/05 06:50:45;;;;;;;2.53;2.05;;;19.70;43.10;18.70;101731.00;;;;5036365;28;20462;-78
2022/05/05 06:53:31;;;;;;;6.63;2.28;;;19.60;43.00;18.70;101738.00;;;;5032973;28;20681;-77
2022/05/05 06:56:17;;;;;;;3.03;1.95;;;19.70;43.00;18.70;101749.00;;;;5037719;28;20494;-78
2022/05/05 06:59:03;;;;;;;5.40;2.50;;;19.60;43.00;18.70;101741.00;;;;5030313;28;20041;-78
2022/05/05 07:01:51;;;;;;;4.65;1.73;;;19.70;43.00;18.70;101733.00;;;;5033968;28;20037;-78
2022/05/05 07:07:42;;;;;;;3.33;1.98;;;19.60;42.90;18.70;101745.00;;;;5037215;28;20040;-77
2022/05/05 07:13:33;;;;;;;4.50;2.00;;;19.70;42.90;18.70;101742.00;;;;5037699;28;20593;-77
2022/05/05 07:16:19;;;;;;;7.25;2.55;;;19.70;42.90;18.70;101741.00;;;;5034179;28;20038;-77
2022/05/05 07:19:06;;;;;;;4.13;2.08;;;19.70;42.90;18.80;101746.00;;;;5024700;28;20049;-77
2022/05/05 07:21:52;;;;;;;6.63;1.70;;;19.70;42.90;18.80;101742.00;;;;5037116;28;20033;-77
2022/05/05 07:24:38;;;;;;;3.40;1.80;;;19.70;42.90;18.80;101746.00;;;;5034307;28;20033;-77
2022/05/05 07:27:24;;;;;;;4.13;1.90;;;19.70;42.90;18.80;101750.00;;;;5026180;28;20049;-77
2022/05/05 07:30:11;;;;;;;2.85;1.80;;;19.70;42.80;18.80;101761.00;;;;5037856;28;20081;-77
2022/05/05 07:32:57;;;;;;;3.83;1.73;;;19.70;42.80;18.80;101770.00;;;;5023725;28;20041;-77
2022/05/05 07:35:44;;;;;;;3.63;1.80;;;19.70;42.80;18.80;101755.00;;;;5036191;28;20668;-77
2022/05/05 07:38:30;;;;;;;4.43;1.90;;;19.70;42.80;18.80;101762.00;;;;5020883;28;20045;-77
2022/05/05 07:41:16;;;;;;;3.08;1.83;;;19.80;42.70;18.80;101758.00;;;;5040276;28;20292;-77
2022/05/05 07:44:04;;;;;;;3.60;2.10;;;19.80;42.70;18.80;101756.00;;;;5032841;28;20048;-77
2022/05/05 07:46:50;;;;;;;4.25;1.90;;;19.80;42.70;18.80;101752.00;;;;5017096;28;20033;-77
2022/05/05 07:49:36;;;;;;;5.55;1.70;;;19.80;42.70;18.80;101763.00;;;;5015407;28;20049;-77
2022/05/05 07:52:22;;;;;;;2.60;1.70;;;19.70;42.60;18.80;101762.00;;;;5029846;28;20403;-77
2022/05/05 07:55:09;;;;;;;4.40;1.65;;;19.80;42.60;18.80;101763.00;;;;5035568;28;20048;-77
2022/05/05 07:57:57;;;;;;;4.43;1.70;;;19.80;42.60;18.80;101763.00;;;;5033925;28;20050;-71
2022/05/05 08:00:43;;;;;;;4.40;1.83;;;19.80;42.50;18.80;101774.00;;;;5034970;28;20112;-72
2022/05/05 08:03:29;;;;;;;4.28;1.73;;;19.80;42.60;18.80;101772.00;;;;5033919;28;20391;-71
2022/05/05 08:06:15;;;;;;;3.55;1.55;;;19.80;42.50;18.80;101781.00;;;;5033603;28;20596;-71
2022/05/05 08:09:01;;;;;;;4.05;2.15;;;19.80;42.50;18.80;101782.00;;;;5018543;28;20041;-72
2022/05/05 08:11:47;;;;;;;3.72;1.70;;;19.80;42.50;18.80;101769.00;;;;5030853;28;20045;-72
2022/05/05 08:14:33;;;;;;;3.38;1.63;;;19.80;42.40;18.80;101782.00;;;;5036590;28;20044;-71
2022/05/05 08:17:19;;;;;;;3.78;1.70;;;19.70;42.30;18.80;101779.00;;;;5037636;28;20068;-73
2022/05/05 08:20:07;;;;;;;3.67;1.73;;;19.80;42.40;18.80;101779.00;;;;5032727;28;20502;-74
2022/05/05 08:22:53;;;;;;;3.50;1.63;;;19.80;42.20;18.80;101778.00;;;;5019519;28;20040;-73
2022/05/05 08:28:44;;;;;;;4.05;1.67;;;19.80;42.20;18.80;101783.00;;;;5031685;28;20075;-73
2022/05/05 08:31:30;;;;;;;5.50;1.67;;;19.80;42.20;18.80;101785.00;;;;5022794;28;20045;-73
2022/05/05 08:34:16;;;;;;;3.75;1.70;;;19.90;42.30;18.80;101790.00;;;;5036040;28;20041;-73
2022/05/05 08:37:02;;;;;;;3.05;1.70;;;19.80;42.20;18.80;101783.00;;;;5042935;28;20037;-75
2022/05/05 08:39:48;;;;;;;4.15;1.50;;;19.80;42.20;18.80;101787.00;;;;5023851;28;20140;-73
2022/05/05 08:42:35;;;;;;;3.58;2.03;;;19.80;42.20;18.90;101782.00;;;;5023706;28;20368;-74
2022/05/05 08:45:21;;;;;;;3.22;1.58;;;19.90;42.20;18.80;101786.00;;;;5030539;28;20040;-73
2022/05/05 08:48:10;;;;;;;3.88;2.15;;;19.90;42.20;18.90;101792.00;;;;5037998;28;20447;-74
2022/05/05 08:50:58;;;;;;;2.90;1.63;;;19.90;42.20;18.80;101784.00;;;;5023366;28;20132;-73
2022/05/05 08:53:46;;;;;;;3.65;1.52;;;19.90;42.30;18.90;101794.00;;;;5021760;28;20053;-74
2022/05/05 08:56:33;;;;;;;3.53;1.67;;;19.90;42.20;18.90;101795.00;;;;5007241;28;20037;-74
2022/05/05 08:59:20;;;;;;;4.83;1.50;;;19.90;42.20;18.90;101796.00;;;;5013856;28;20036;-73
2022/05/05 09:02:06;;;;;;;4.85;1.73;;;19.90;42.20;18.90;101802.00;;;;5035526;28;20474;-73
2022/05/05 09:04:52;;;;;;;5.35;2.10;;;19.90;42.90;18.90;101800.00;;;;5032741;28;20505;-72
2022/05/05 09:07:52;;;;;;;4.35;1.75;;;19.90;42.10;18.90;101796.00;;;;5034833;28;20048;-72
2022/05/05 09:10:45;;;;;;;4.80;1.85;;;19.90;42.10;18.90;101794.00;;;;5028682;28;20041;-72
2022/05/05 09:13:37;;;;;;;3.47;1.83;;;19.90;42.10;18.90;101800.00;;;;5034869;28;20245;-72
2022/05/05 09:16:24;;;;;;;3.15;1.70;;;19.90;42.10;18.90;101800.00;;;;5002299;28;20449;-72
2022/05/05 09:19:11;;;;;;;2.70;1.58;;;19.90;42.10;18.90;101803.00;;;;5037635;28;20059;-72
2022/05/05 09:21:58;;;;;;;5.88;1.63;;;19.90;42.00;18.90;101799.00;;;;5037722;28;20115;-72
2022/05/05 09:24:46;;;;;;;4.10;1.60;;;19.90;42.10;18.90;101814.00;;;;5039513;28;20033;-72
2022/05/05 09:27:33;;;;;;;3.03;1.48;;;19.90;42.10;18.90;101806.00;;;;5022089;28;20045;-72
2022/05/05 09:30:19;;;;;;;3.97;2.03;;;19.90;42.00;18.90;101804.00;;;;5029601;28;20124;-73
2022/05/05 09:33:06;;;;;;;4.07;2.03;;;19.90;42.00;18.90;101803.00;;;;5031591;28;20069;-73
2022/05/05 09:35:56;;;;;;;5.03;1.90;;;19.90;41.90;18.90;101801.00;;;;5007411;28;20503;-73
2022/05/05 09:38:51;;;;;;;6.07;2.10;;;19.80;41.90;18.90;101811.00;;;;5016782;28;20046;-73
2022/05/05 09:41:46;;;;;;;7.20;2.30;;;19.90;41.80;18.90;101804.00;;;;5029913;28;20470;-73
2022/05/05 09:44:43;;;;;;;3.80;2.20;;;19.90;41.90;18.90;101804.00;;;;5006072;28;20042;-72
2022/05/05 09:47:29;;;;;;;3.13;2.00;;;19.90;41.90;18.90;101800.00;;;;5001111;28;20041;-72
2022/05/05 09:50:15;;;;;;;3.88;2.10;;;19.90;41.90;18.90;101809.00;;;;5006696;28;20614;-73
2022/05/05 09:59:14;;;;;;;3.42;1.55;;;19.90;41.80;18.90;101804.00;;;;5021939;28;20045;-73
2022/05/05 10:02:04;;;;;;;3.10;1.55;;;19.90;41.80;18.90;101810.00;;;;5016620;28;20048;-73
2022/05/05 10:04:50;;;;;;;6.20;2.17;;;20.00;41.90;18.90;101813.00;;;;5006203;28;20042;-73
2022/05/05 10:07:38;;;;;;;4.43;1.95;;;20.00;41.80;18.90;101811.00;;;;5017634;28;20048;-73
2022/05/05 10:10:24;;;;;;;4.63;1.60;;;19.90;41.80;18.90;101813.00;;;;5012966;28;20066;-73
2022/05/05 10:13:12;;;;;;;4.13;1.75;;;20.00;41.80;18.90;101810.00;;;;5008324;28;20037;-73
2022/05/05 10:15:59;;;;;;;3.35;1.90;;;20.00;41.80;18.90;101811.00;;;;5024825;28;20485;-73
2022/05/05 10:18:45;;;;;;;4.72;2.28;;;19.90;41.70;18.90;101809.00;;;;5028097;28;20045;-72
2022/05/05 10:21:49;;;;;;;4.53;1.90;;;20.00;41.70;18.90;101806.00;;;;5020856;28;20036;-72
2022/05/05 10:25:03;;;;;;;3.47;1.88;;;20.00;41.70;18.90;101805.00;;;;5037063;28;20033;-73
2022/05/05 10:27:49;;;;;;;3.95;1.60;;;20.00;41.70;19.00;101818.00;;;;5013547;28;20055;-73
2022/05/05 10:30:35;;;;;;;6.53;2.05;;;19.90;41.70;19.00;101809.00;;;;5036004;28;20371;-73
2022/05/05 10:33:23;;;;;;;3.67;1.63;;;20.00;41.70;18.90;101807.00;;;;5024890;28;20048;-73
2022/05/05 10:36:22;;;;;;;6.93;1.70;;;20.10;41.80;19.00;101800.00;;;;5031908;28;20037;-73
2022/05/05 10:39:26;;;;;;;3.22;1.58;;;20.00;41.70;19.00;101799.00;;;;5024542;28;20292;-73
2022/05/05 10:42:17;;;;;;;3.45;1.60;;;20.00;41.70;19.00;101801.00;;;;5020693;28;20078;-73
2022/05/05 10:45:05;;;;;;;3.90;1.90;;;20.10;41.70;19.00;101799.00;;;;5016864;28;20068;-73
2022/05/05 10:47:58;;;;;;;;;;;20.10;41.70;19.00;101802.00;;;;5026670;28;20041;-73
2022/05/05 10:50:50;;;;;;;3.47;1.60;;;20.10;41.80;19.00;101805.00;;;;5033031;28;19923;-73
2022/05/05 10:54:22;;;;;;;3.58;1.50;;;20.10;41.60;19.00;101806.00;;;;5009741;28;20095;-73
2022/05/05 10:57:27;;;;;;;4.43;1.75;;;20.10;41.60;19.00;101792.00;;;;5033437;28;20180;-73
2022/05/05 11:00:20;;;;;;;3.22;1.90;;;20.10;41.60;19.00;101797.00;;;;5034352;28;20226;-73
2022/05/05 11:03:11;;;;;;;3.42;1.77;;;20.10;41.60;19.00;101796.00;;;;5035878;28;20041;-73
2022/05/05 11:06:18;;;;;;;5.75;2.03;;;20.10;41.60;19.00;101804.00;;;;5030206;28;20041;-73
2022/05/05 11:09:05;;;;;;;5.57;1.80;;;20.10;41.50;19.00;101801.00;;;;5038663;28;20045;-74
2022/05/05 11:12:31;;;;;;;2.77;1.63;;;20.10;41.50;19.00;101796.00;;;;5024175;28;20060;-73
2022/05/05 11:21:32;;;;;;;2.83;1.80;;;20.20;41.50;19.00;101803.00;;;;5024164;28;20099;-73
2022/05/05 11:24:27;;;;;;;3.20;1.75;;;20.10;41.50;19.00;101789.00;;;;5012323;28;20097;-73
2022/05/05 11:27:13;;;;;;;4.65;1.70;;;20.10;41.50;19.00;101793.00;;;;5012359;28;20082;-73
2022/05/05 11:30:00;;;;;;;4.82;1.83;;;20.20;41.50;19.00;101798.00;;;;5032297;28;20553;-73
2022/05/05 11:32:46;;;;;;;5.07;1.70;;;20.20;41.50;19.00;101795.00;;;;5003783;28;20059;-73
2022/05/05 11:35:32;;;;;;;4.63;1.77;;;20.20;41.60;19.00;101800.00;;;;5030502;28;20110;-73
2022/05/05 11:38:18;;;;;;;3.55;1.50;;;20.20;41.60;19.00;101799.00;;;;5037978;28;20033;-73
2022/05/05 11:41:04;;;;;;;3.20;1.80;;;20.20;41.50;19.00;101794.00;;;;5010760;28;20037;-73
2022/05/05 11:46:57;;;;;;;3.58;1.83;;;20.20;41.60;19.10;101789.00;;;;5024552;28;20048;-73
2022/05/05 11:49:46;;;;;;;3.28;2.00;;;20.20;41.50;19.10;101803.00;;;;5023892;28;20036;-73
2022/05/05 11:52:33;;;;;;;6.55;2.08;;;20.20;41.50;19.10;101804.00;;;;5018291;28;20044;-74
2022/05/05 11:55:19;;;;;;;5.55;2.05;;;20.20;41.30;19.10;101800.00;;;;5018601;28;20037;-72
2022/05/05 11:58:15;;;;;;;2.95;1.60;;;20.20;41.40;19.10;101805.00;;;;5034403;28;20057;-73
2022/05/05 12:04:16;;;;;;;3.78;2.10;;;20.30;41.10;19.10;101800.00;;;;5021351;28;20046;-72
2022/05/05 12:07:03;;;;;;;4.43;1.90;;;20.30;41.00;19.10;101802.00;;;;5020220;28;20360;-72
2022/05/05 12:09:54;;;;;;;5.13;1.85;;;20.30;41.00;19.10;101794.00;;;;4999722;28;20054;-72
2022/05/05 12:12:48;;;;;;;2.83;1.67;;;20.30;41.00;19.10;101793.00;;;;5022386;28;20103;-72
2022/05/05 12:15:35;;;;;;;2.55;1.55;;;20.30;41.10;19.10;101794.00;;;;5012467;28;20045;-72
2022/05/05 12:18:22;;;;;;;4.82;1.75;;;20.30;41.10;19.10;101795.00;;;;5009002;28;20504;-73
2022/05/05 12:21:08;;;;;;;4.53;1.90;;;20.30;41.20;19.10;101798.00;;;;5031315;28;20041;-73
2022/05/05 12:24:00;;;;;;;4.13;1.75;;;20.30;41.20;19.10;101784.00;;;;5033472;28;20124;-72
2022/05/05 12:26:46;;;;;;;2.80;1.67;;;20.30;41.20;19.10;101797.00;;;;5012540;28;20086;-72
2022/05/05 12:29:42;;;;;;;3.38;1.63;;;20.30;41.20;19.10;101789.00;;;;5022131;28;20490;-73
2022/05/05 12:32:28;;;;;;;3.17;1.40;;;20.30;41.10;19.10;101791.00;;;;5028621;28;20137;-71
2022/05/05 12:35:17;;;;;;;4.13;1.60;;;20.30;41.10;19.10;101791.00;;;;5033123;28;20304;-71
2022/05/05 12:38:04;;;;;;;3.92;1.85;;;20.30;41.10;19.10;101791.00;;;;5039272;28;20041;-71
2022/05/05 12:41:16;;;;;;;4.60;1.90;;;20.30;41.00;19.20;101794.00;;;;5039646;28;20479;-73
2022/05/05 12:44:08;;;;;;;5.05;2.13;;;20.30;40.90;19.10;101791.00;;;;5023570;28;20040;-73
2022/05/05 12:46:59;;;;;;;3.33;1.80;;;20.30;41.70;19.20;101787.00;;;;5033088;28;20558;-72
2022/05/05 12:49:45;;;;;;;3.58;1.60;;;20.30;41.00;19.20;101791.00;;;;5032621;28;20048;-72
2022/05/05 13:01:54;;;;;;;3.22;1.45;;;20.40;41.20;19.20;101784.00;;;;5014803;28;20076;-73
2022/05/05 13:04:41;;;;;;;3.58;1.60;;;20.30;41.00;19.20;101793.00;;;;5015438;28;20037;-72
2022/05/05 13:07:28;;;;;;;5.07;1.77;;;20.40;41.10;19.20;101786.00;;;;5036706;28;20441;-72
2022/05/05 13:10:14;;;;;;;3.73;1.53;;;20.40;41.00;19.20;101791.00;;;;5036529;28;20049;-72